createdAt,value
2022-08-08T00:00:52.731Z,2.13
2022-08-08T00:04:37.816Z,2.50
2022-08-08T00:08:59.396Z,2.35
2022-08-08T00:13:10.099Z,2.58
2022-08-08T00:17:58.670Z,2.67
2022-08-08T00:22:19.414Z,2.50
2022-08-08T00:26:52.557Z,2.42
2022-08-08T00:31:00.918Z,2.58
2022-08-08T00:35:41.828Z,2.70
2022-08-08T00:41:11.394Z,2.80
2022-08-08T00:44:24.649Z,2.58
2022-08-08T00:49:01.342Z,2.60
2022-08-08T00:53:06.918Z,2.25
2022-08-08T00:57:40.636Z,2.78
2022-08-08T01:02:01.379Z,2.88
2022-08-08T01:06:47.518Z,2.50
2022-08-08T01:10:57.893Z,2.60
2022-08-08T01:15:47.263Z,3.17
2022-08-08T01:20:26.015Z,2.97
2022-08-08T01:25:14.317Z,3.10
2022-08-08T01:29:35.394Z,3.00
2022-08-08T01:34:01.559Z,2.88
2022-08-08T01:38:27.114Z,3.40
2022-08-08T01:42:43.085Z,3.10
2022-08-08T01:48:14.672Z,3.70
2022-08-08T01:52:41.246Z,2.85
2022-08-08T02:01:05.125Z,2.70
2022-08-08T02:05:56.544Z,3.28
2022-08-08T02:10:45.098Z,2.90
2022-08-08T02:15:04.092Z,3.90
2022-08-08T02:19:41.934Z,3.28
2022-08-08T02:23:59.567Z,3.92
2022-08-08T02:28:10.830Z,3.60
2022-08-08T02:32:38.645Z,3.08
2022-08-08T02:36:51.336Z,4.00
2022-08-08T02:41:17.871Z,4.45
2022-08-08T02:45:54.181Z,4.32
2022-08-08T02:50:32.191Z,4.75
2022-08-08T02:54:45.161Z,4.38
2022-08-08T02:59:26.323Z,4.47
2022-08-08T03:05:03.952Z,4.00
2022-08-08T03:09:23.403Z,4.35
2022-08-08T03:15:56.484Z,4.07
2022-08-08T03:18:31.496Z,3.72
2022-08-08T03:22:46.031Z,4.35
2022-08-08T03:26:52.807Z,4.50
2022-08-08T03:31:22.003Z,4.40
2022-08-08T03:35:17.038Z,4.80
2022-08-08T03:39:19.859Z,5.00
2022-08-08T03:43:22.641Z,4.78
2022-08-08T03:47:45.328Z,5.03
2022-08-08T03:51:53.085Z,5.10
2022-08-08T03:56:04.282Z,4.72
2022-08-08T04:00:18.344Z,4.80
2022-08-08T04:04:30.826Z,4.80
2022-08-08T04:08:37.202Z,4.78
2022-08-08T04:12:44.416Z,4.72
2022-08-08T04:16:49.172Z,4.90
2022-08-08T04:20:53.329Z,4.20
2022-08-08T04:24:55.497Z,4.22
2022-08-08T04:28:58.021Z,4.32
2022-08-08T04:33:00.956Z,4.40
2022-08-08T04:37:07.603Z,4.45
2022-08-08T04:41:09.863Z,4.75
2022-08-08T04:45:20.090Z,4.97
2022-08-08T04:49:28.889Z,4.65
2022-08-08T04:54:36.105Z,4.65
2022-08-08T04:58:10.859Z,4.68
2022-08-08T05:02:14.565Z,4.05
2022-08-08T05:06:18.310Z,4.53
2022-08-08T05:10:29.807Z,4.65
2022-08-08T05:14:33.978Z,4.40
2022-08-08T05:18:40.918Z,4.35
2022-08-08T05:22:48.149Z,4.80
2022-08-08T05:26:51.095Z,4.55
2022-08-08T05:30:52.805Z,5.20
2022-08-08T05:35:04.464Z,5.45
2022-08-08T05:39:10.084Z,4.25
2022-08-08T05:43:39.473Z,4.35
2022-08-08T05:48:00.104Z,4.22
2022-08-08T05:52:03.500Z,4.00
2022-08-08T05:56:11.198Z,4.40
2022-08-08T06:00:23.385Z,4.05
2022-08-08T06:04:33.377Z,3.67
2022-08-08T06:08:54.601Z,3.33
2022-08-08T06:12:57.905Z,3.53
2022-08-08T06:17:01.350Z,3.08
2022-08-08T06:21:28.370Z,2.97
2022-08-08T06:26:35.159Z,3.15
2022-08-08T06:30:26.069Z,3.10
2022-08-08T06:34:37.496Z,2.60
2022-08-08T06:42:55.438Z,2.42
2022-08-08T06:47:04.401Z,3.05
2022-08-08T06:51:08.598Z,3.08
2022-08-08T06:55:12.551Z,3.30
2022-08-08T06:59:19.005Z,2.78
2022-08-08T07:04:37.900Z,3.45
2022-08-08T07:08:33.656Z,2.88
2022-08-08T07:12:47.790Z,2.00
2022-08-08T07:17:08.968Z,2.15
2022-08-08T07:21:18.464Z,2.75
2022-08-08T07:25:29.223Z,2.08
2022-08-08T07:29:59.631Z,2.05
2022-08-08T07:33:59.551Z,2.28
2022-08-08T07:38:09.765Z,1.58
2022-08-08T07:42:33.172Z,2.33
2022-08-08T07:46:37.752Z,1.90
2022-08-08T07:50:49.044Z,1.83
2022-08-08T07:54:55.489Z,1.60
2022-08-08T07:58:57.296Z,2.00
2022-08-08T08:03:09.874Z,1.90
2022-08-08T08:07:18.103Z,1.42
2022-08-08T08:11:23.486Z,1.70
2022-08-08T08:15:31.815Z,1.55
2022-08-08T08:19:45.766Z,1.70
2022-08-08T08:23:51.151Z,2.13
2022-08-08T08:27:53.507Z,2.05
2022-08-08T08:31:58.135Z,1.92
2022-08-08T08:36:19.764Z,1.85
2022-08-08T08:40:25.171Z,2.03
2022-08-08T08:44:28.946Z,1.50
2022-08-08T08:48:34.161Z,1.27
2022-08-08T08:52:52.909Z,1.30
2022-08-08T08:57:15.634Z,1.13
2022-08-08T09:01:21.131Z,1.90
2022-08-08T09:05:53.710Z,1.92
2022-08-08T09:09:57.422Z,1.77
2022-08-08T09:14:09.943Z,1.67
2022-08-08T09:18:14.829Z,2.08
2022-08-08T09:22:26.879Z,2.38
2022-08-08T09:27:03.753Z,2.17
2022-08-08T09:31:20.477Z,1.95
2022-08-08T09:35:32.294Z,1.65
2022-08-08T09:39:53.069Z,1.42
2022-08-08T09:44:12.882Z,1.52
2022-08-08T09:48:28.875Z,0.98
2022-08-08T09:52:57.572Z,1.75
2022-08-08T09:57:03.617Z,0.98
2022-08-08T10:01:15.324Z,1.48
2022-08-08T10:05:37.000Z,1.30
2022-08-08T10:10:00.826Z,1.45
2022-08-08T10:14:06.422Z,1.20
2022-08-08T10:18:17.617Z,1.13
2022-08-08T10:22:25.834Z,1.60
2022-08-08T10:26:56.657Z,1.23
2022-08-08T10:31:01.207Z,1.23
2022-08-08T10:35:20.389Z,1.73
2022-08-08T10:39:54.669Z,1.75
2022-08-08T10:43:58.991Z,1.20
2022-08-08T10:48:00.898Z,1.60
2022-08-08T10:52:03.079Z,1.60
2022-08-08T10:56:05.126Z,1.38
2022-08-08T11:00:10.893Z,1.10
2022-08-08T11:04:13.947Z,1.13
2022-08-08T11:08:38.392Z,1.48
2022-08-08T11:13:12.240Z,1.23
2022-08-08T11:17:14.996Z,1.52
2022-08-08T11:21:19.566Z,1.73
2022-08-08T11:25:51.706Z,1.42
2022-08-08T11:30:19.333Z,1.17
2022-08-08T11:34:22.985Z,1.50
2022-08-08T11:38:39.077Z,1.85
2022-08-08T11:42:51.467Z,1.90
2022-08-08T11:46:57.813Z,1.52
2022-08-08T11:51:00.676Z,1.60
2022-08-08T11:55:28.646Z,1.30
2022-08-08T11:59:57.972Z,1.35
2022-08-08T12:03:59.601Z,1.80
2022-08-08T12:08:02.169Z,1.40
2022-08-08T12:12:07.176Z,1.95
2022-08-08T12:16:15.767Z,1.50
2022-08-08T12:20:17.953Z,1.20
2022-08-08T12:24:28.291Z,1.75
2022-08-08T12:28:30.167Z,1.50
2022-08-08T12:32:42.559Z,1.58
2022-08-08T12:36:46.365Z,1.63
2022-08-08T12:40:55.990Z,1.48
2022-08-08T12:45:54.888Z,1.38
2022-08-08T12:49:43.825Z,1.30
2022-08-08T12:54:01.229Z,1.40
2022-08-08T12:58:15.627Z,1.30
2022-08-08T13:02:29.646Z,1.38
2022-08-08T13:06:33.699Z,1.65
2022-08-08T13:10:36.508Z,1.40
2022-08-08T13:14:52.797Z,1.30
2022-08-08T13:19:01.682Z,1.20
2022-08-08T13:23:41.189Z,1.70
2022-08-08T13:27:39.319Z,1.10
2022-08-08T13:31:51.711Z,1.10
2022-08-08T13:35:55.786Z,1.10
2022-08-08T13:40:02.706Z,0.80
2022-08-08T13:44:07.115Z,1.25
2022-08-08T13:48:14.532Z,1.27
2022-08-08T13:52:23.202Z,1.02
2022-08-08T13:56:59.640Z,1.17
2022-08-08T14:01:12.363Z,1.58
2022-08-08T14:05:21.879Z,1.10
2022-08-08T14:10:02.426Z,1.08
2022-08-08T14:14:00.601Z,1.20
2022-08-08T14:18:36.239Z,1.27
2022-08-08T14:22:28.741Z,1.33
2022-08-08T14:26:33.378Z,1.25
2022-08-08T14:30:35.197Z,1.67
2022-08-08T14:34:37.431Z,0.68
2022-08-08T14:38:52.350Z,0.90
2022-08-08T14:43:01.839Z,1.38
2022-08-08T14:47:22.107Z,0.98
2022-08-08T14:51:25.276Z,1.20
2022-08-08T14:55:42.096Z,1.90
2022-08-08T14:59:51.006Z,1.40
2022-08-08T15:03:53.682Z,1.70
2022-08-08T15:08:22.272Z,0.90
2022-08-08T15:12:32.541Z,0.75
2022-08-08T15:16:35.038Z,1.15
2022-08-08T15:20:37.076Z,1.38
2022-08-08T15:24:39.552Z,1.20
2022-08-08T15:28:41.117Z,1.15
2022-08-08T15:32:43.455Z,0.73
2022-08-08T15:36:47.517Z,1.25
2022-08-08T15:40:49.144Z,1.20
2022-08-08T15:44:51.313Z,1.00
2022-08-08T15:48:52.930Z,0.82
2022-08-08T15:52:54.666Z,1.10
2022-08-08T15:56:57.678Z,0.85
2022-08-08T16:00:59.381Z,0.68
2022-08-08T16:05:01.897Z,1.42
2022-08-08T16:13:05.149Z,1.20
2022-08-08T16:13:33.809Z,0.68
2022-08-08T16:18:06.846Z,0.95
2022-08-08T16:22:08.841Z,1.25
2022-08-08T16:26:35.391Z,1.40
2022-08-08T16:30:37.767Z,1.60
2022-08-08T16:34:41.924Z,1.27
2022-08-08T16:38:47.427Z,1.35
2022-08-08T16:42:55.271Z,1.30
2022-08-08T16:46:56.847Z,1.20
2022-08-08T16:50:58.666Z,1.00
2022-08-08T16:55:50.048Z,1.33
2022-08-08T16:59:22.645Z,1.38
2022-08-08T17:03:59.858Z,1.42
2022-08-08T17:07:51.575Z,1.00
2022-08-08T17:11:54.544Z,0.85
2022-08-08T17:16:00.193Z,1.23
2022-08-08T17:20:05.853Z,1.20
2022-08-08T17:24:19.464Z,1.27
2022-08-08T17:28:35.122Z,1.10
2022-08-08T17:34:34.974Z,1.30
2022-08-08T17:37:02.842Z,1.48
2022-08-08T17:41:05.891Z,1.10
2022-08-08T17:45:22.252Z,1.50
2022-08-08T17:49:28.688Z,1.23
2022-08-08T17:53:43.142Z,1.05
2022-08-08T17:57:45.365Z,1.15
2022-08-08T18:01:58.588Z,1.25
2022-08-08T18:06:01.067Z,0.90
2022-08-08T18:10:05.324Z,1.23
2022-08-08T18:14:18.915Z,1.45
2022-08-08T18:18:28.610Z,0.93
2022-08-08T18:22:50.655Z,1.65
2022-08-08T18:26:56.855Z,1.38
2022-08-08T18:30:58.592Z,1.50
2022-08-08T18:35:15.482Z,1.50
2022-08-08T18:39:28.136Z,1.60
2022-08-08T18:43:42.850Z,1.55
2022-08-08T18:47:45.079Z,1.40
2022-08-08T18:51:53.332Z,1.30
2022-08-08T18:55:56.036Z,1.00
2022-08-08T19:00:00.726Z,1.42
2022-08-08T19:04:10.760Z,1.20
2022-08-08T19:08:25.899Z,1.52
2022-08-08T19:12:32.286Z,1.33
2022-08-08T19:16:36.883Z,1.10
2022-08-08T19:20:39.902Z,1.42
2022-08-08T19:25:38.610Z,1.40
2022-08-08T19:29:07.475Z,1.38
2022-08-08T19:33:09.614Z,1.38
2022-08-08T19:37:16.116Z,1.73
2022-08-08T19:41:21.029Z,1.43
2022-08-08T19:45:58.371Z,2.05
2022-08-08T19:49:59.930Z,1.73
2022-08-08T19:54:02.484Z,1.60
2022-08-08T19:58:04.329Z,1.58
2022-08-08T20:02:10.640Z,1.60
2022-08-08T20:06:16.708Z,1.60
2022-08-08T20:10:18.542Z,1.70
2022-08-08T20:14:33.653Z,1.55
2022-08-08T20:18:37.163Z,1.58
2022-08-08T20:22:56.083Z,1.33
2022-08-08T20:26:58.031Z,1.60
2022-08-08T20:31:00.794Z,1.33
2022-08-08T20:35:03.690Z,1.90
2022-08-08T20:39:06.133Z,1.70
2022-08-08T20:43:14.086Z,1.45
2022-08-08T20:47:25.526Z,1.90
2022-08-08T20:51:31.525Z,1.42
2022-08-08T20:55:35.876Z,1.60
2022-08-08T20:59:44.182Z,1.30
2022-08-08T21:03:55.438Z,1.20
2022-08-08T21:08:37.191Z,1.30
2022-08-08T21:12:32.246Z,1.27
2022-08-08T21:16:35.295Z,1.42
2022-08-08T21:20:39.676Z,1.20
2022-08-08T21:24:52.667Z,1.35
2022-08-08T21:29:00.455Z,1.67
2022-08-08T21:33:08.111Z,1.48
2022-08-08T21:37:18.991Z,1.40
2022-08-08T21:41:28.744Z,1.88
2022-08-08T21:47:59.621Z,1.67
2022-08-08T21:50:02.138Z,1.50
2022-08-08T21:54:33.579Z,1.60
2022-08-08T21:58:32.209Z,1.45
2022-08-08T22:02:38.986Z,1.77
2022-08-08T22:06:42.598Z,1.80
2022-08-08T22:10:45.151Z,1.52
2022-08-08T22:14:52.339Z,2.22
2022-08-08T22:18:54.225Z,1.45
2022-08-08T22:22:56.033Z,2.22
2022-08-08T22:27:02.570Z,1.73
2022-08-08T22:31:04.850Z,1.50
2022-08-08T22:35:07.259Z,1.73
2022-08-08T22:39:09.534Z,1.70
2022-08-08T22:43:20.942Z,1.98
2022-08-08T22:47:24.428Z,2.13
2022-08-08T22:51:42.700Z,2.03
2022-08-08T22:55:58.629Z,1.88
2022-08-08T23:00:02.996Z,2.10
2022-08-08T23:04:06.236Z,1.70
2022-08-08T23:08:18.028Z,2.00
2022-08-08T23:12:39.913Z,2.08
2022-08-08T23:16:44.216Z,1.90
2022-08-08T23:20:51.418Z,2.15
2022-08-08T23:24:56.710Z,2.42
2022-08-08T23:29:00.491Z,2.40
2022-08-08T23:33:02.182Z,2.25
2022-08-08T23:37:04.610Z,2.13
2022-08-08T23:41:12.280Z,2.30
2022-08-08T23:49:05.977Z,2.60
2022-08-08T23:49:49.649Z,2.47
2022-08-08T23:54:41.471Z,2.40
2022-08-08T23:58:35.737Z,2.40
